Time;durP1;ratioP1;P1;durP2;ratioP2;P2;SDS_P1;SDS_P2;PMS_P1;PMS_P2;Temp;Humidity;BMP_temperature;BMP_pressure;BME280_temperature;BME280_humidity;BME280_pressure;Samples;Min_cycle;Max_cycle;Signal;HPM_P1;HPM_P2
2022/10/21 00:02:13;;;;;;;;;;;12.00;99.90;;;;;;4962057;28;19934;-58
2022/10/21 00:04:40;;;;;;;;;;;11.90;99.90;;;;;;5046637;28;19924;-57
2022/10/21 00:07:08;;;;;;;;;;;11.90;99.90;;;;;;5034924;28;19926;-57
2022/10/21 00:09:35;;;;;;;;;;;11.90;99.90;;;;;;5050946;28;20423;-57
2022/10/21 00:12:03;;;;;;;;;;;11.90;99.90;;;;;;4952261;28;19926;-57
2022/10/21 00:14:30;;;;;;;;;;;11.90;99.90;;;;;;5048744;28;20398;-57
2022/10/21 00:16:58;;;;;;;;;;;11.90;99.90;;;;;;5067215;28;20299;-58
2022/10/21 00:19:25;;;;;;;;;;;11.90;99.90;;;;;;4977699;28;19934;-57
2022/10/21 00:21:53;;;;;;;;;;;11.90;99.90;;;;;;4979275;28;19926;-57
2022/10/21 00:24:20;;;;;;;;;;;12.00;99.90;;;;;;5048599;28;19931;-57
2022/10/21 00:26:48;;;;;;;;;;;12.00;99.90;;;;;;4962663;28;19927;-57
2022/10/21 00:29:16;;;;;;;;;;;12.00;99.90;;;;;;5042094;28;19947;-58
2022/10/21 00:31:43;;;;;;;;;;;11.90;99.90;;;;;;5041134;28;19930;-57
2022/10/21 00:34:11;;;;;;;;;;;12.00;99.90;;;;;;5042095;28;19924;-57
2022/10/21 00:36:38;;;;;;;;;;;12.00;99.90;;;;;;4990567;28;20427;-57
2022/10/21 00:39:06;;;;;;;;;;;11.90;99.90;;;;;;5038651;28;20597;-58
2022/10/21 00:41:33;;;;;;;;;;;12.00;99.90;;;;;;4957686;28;19933;-58
2022/10/21 00:44:05;;;;;;;;;;;11.90;99.90;;;;;;5041008;28;19936;-58
2022/10/21 00:46:36;;;;;;;;;;;11.90;99.90;;;;;;4970704;28;19926;-57
2022/10/21 00:49:06;;;;;;;;;;;11.90;99.90;;;;;;5029786;28;20309;-58
2022/10/21 00:51:34;;;;;;;;;;;11.90;99.90;;;;;;4970406;28;20503;-57
2022/10/21 00:54:01;;;;;;;;;;;11.90;99.90;;;;;;5028718;28;19936;-57
2022/10/21 00:56:31;;;;;;;;;;;11.90;99.90;;;;;;4979549;28;19933;-57
2022/10/21 00:58:59;;;;;;;;;;;11.90;99.90;;;;;;5009466;28;19924;-57
2022/10/21 01:01:26;;;;;;;;;;;11.90;99.90;;;;;;5062778;28;19932;-57
2022/10/21 01:03:54;;;;;;;;;;;11.90;99.90;;;;;;5023342;28;19929;-57
2022/10/21 01:06:22;;;;;;;;;;;11.90;99.90;;;;;;5064593;28;19931;-57
2022/10/21 01:08:53;;;;;;;;;;;11.90;99.90;;;;;;5042513;28;20024;-57
2022/10/21 01:11:22;;;;;;;;;;;11.90;99.90;;;;;;4963527;28;20297;-57
2022/10/21 01:13:53;;;;;;;;;;;11.80;99.90;;;;;;5011188;28;20291;-57
2022/10/21 01:16:24;;;;;;;;;;;11.80;99.90;;;;;;5037683;28;19925;-57
2022/10/21 01:18:54;;;;;;;;;;;11.70;99.90;;;;;;5020054;28;19951;-58
2022/10/21 01:21:34;;;;;;;;;;;11.60;99.90;;;;;;5031465;28;19926;-57
2022/10/21 01:24:20;;;;;;;;;;;11.60;99.90;;;;;;5027872;28;19928;-57
2022/10/21 01:27:06;;;;;;;;;;;11.50;99.90;;;;;;4966068;28;19941;-57
2022/10/21 01:29:36;;;;;;;;;;;11.50;99.90;;;;;;4982786;28;19933;-58
2022/10/21 01:32:24;;;;;;;;;;;11.40;99.90;;;;;;4952131;28;19926;-57
2022/10/21 01:35:01;;;;;;;;;;;11.30;99.90;;;;;;4973520;28;19996;-57
2022/10/21 01:37:47;;;;;;;;;;;11.30;99.90;;;;;;5049229;28;19931;-57
2022/10/21 01:40:21;;;;;;;;;;;11.30;99.90;;;;;;5068754;28;19939;-57
2022/10/21 01:42:51;;;;;;;;;;;11.20;99.90;;;;;;5001309;28;19933;-57
2022/10/21 01:45:22;;;;;;;;;;;11.20;99.90;;;;;;4978676;28;20301;-57
2022/10/21 01:47:52;;;;;;;;;;;11.20;99.90;;;;;;4983222;28;19950;-57
2022/10/21 01:50:24;;;;;;;;;;;11.20;99.90;;;;;;4969203;28;19949;-57
2022/10/21 01:52:54;;;;;;;;;;;11.20;99.90;;;;;;4990092;28;19933;-57
2022/10/21 01:55:26;;;;;;;;;;;11.20;99.90;;;;;;4990172;28;19926;-57
2022/10/21 01:58:01;;;;;;;;;;;11.20;99.90;;;;;;4983285;28;19926;-56
2022/10/21 02:00:29;;;;;;;;;;;11.10;99.90;;;;;;4989878;28;19926;-57
2022/10/21 02:02:58;;;;;;;;;;;11.20;99.90;;;;;;4989846;28;19930;-57
2022/10/21 02:05:30;;;;;;;;;;;11.10;99.90;;;;;;5028236;28;19928;-57
2022/10/21 02:07:58;;;;;;;;;;;11.10;99.90;;;;;;5071958;28;19924;-57
2022/10/21 02:10:27;;;;;;;;;;;11.10;99.90;;;;;;5071971;28;19925;-56
2022/10/21 02:12:58;;;;;;;;;;;11.10;99.90;;;;;;5071581;28;19925;-56
2022/10/21 02:15:26;;;;;;;;;;;11.00;99.90;;;;;;5062493;28;19928;-57
2022/10/21 02:18:00;;;;;;;;;;;11.10;99.90;;;;;;4968196;28;19926;-56
2022/10/21 02:20:30;;;;;;;;;;;11.00;99.90;;;;;;4970375;28;19926;-56
2022/10/21 02:22:58;;;;;;;;;;;11.00;99.90;;;;;;4970368;28;19926;-56
2022/10/21 02:25:27;;;;;;;;;;;11.00;99.90;;;;;;4970216;28;19930;-56
2022/10/21 02:27:55;;;;;;;;;;;11.00;99.90;;;;;;4970384;28;20320;-56
2022/10/21 02:30:22;;;;;;;;;;;11.00;99.90;;;;;;4971399;28;20369;-56
2022/10/21 02:35:58;;;;;;;;;;;10.90;99.90;;;;;;5365109;23;19937;-57
2022/10/21 02:38:31;;;;;;;;;;;10.90;99.90;;;;;;4952166;29;19935;-58
2022/10/21 02:41:04;;;;;;;;;;;10.90;99.90;;;;;;4956688;29;19926;-58
2022/10/21 02:43:34;;;;;;;;;;;10.80;99.90;;;;;;4956599;29;19926;-57
2022/10/21 02:46:05;;;;;;;;;;;10.80;99.90;;;;;;4957566;29;19927;-58
2022/10/21 02:48:34;;;;;;;;;;;10.70;99.90;;;;;;4957651;29;19926;-58
2022/10/21 02:51:02;;;;;;;;;;;10.70;99.90;;;;;;4957537;29;19934;-57
2022/10/21 02:53:30;;;;;;;;;;;10.60;99.90;;;;;;4957469;29;19934;-57
2022/10/21 02:55:57;;;;;;;;;;;10.60;99.90;;;;;;4957368;29;20370;-56
2022/10/21 02:58:25;;;;;;;;;;;10.50;99.90;;;;;;4957429;29;19926;-57
2022/10/21 03:00:52;;;;;;;;;;;10.50;99.90;;;;;;4957427;28;19934;-57
2022/10/21 03:03:19;;;;;;;;;;;10.40;99.90;;;;;;4957335;29;19926;-57
2022/10/21 03:05:47;;;;;;;;;;;10.40;99.90;;;;;;4956993;28;20317;-57
2022/10/21 03:08:14;;;;;;;;;;;10.40;99.90;;;;;;4957198;29;19926;-56
2022/10/21 03:10:42;;;;;;;;;;;10.30;99.90;;;;;;4957187;29;19927;-57
2022/10/21 03:13:09;;;;;;;;;;;10.30;99.90;;;;;;4957111;29;19926;-57
2022/10/21 03:15:36;;;;;;;;;;;10.30;99.90;;;;;;4956990;29;19933;-57
2022/10/21 03:18:04;;;;;;;;;;;10.30;99.90;;;;;;4956982;29;20270;-56
2022/10/21 03:20:31;;;;;;;;;;;10.30;99.90;;;;;;4957065;28;20385;-57
2022/10/21 03:22:59;;;;;;;;;;;10.40;99.90;;;;;;4971901;28;19926;-56
2022/10/21 03:25:26;;;;;;;;;;;10.40;99.90;;;;;;4957013;29;20428;-57
2022/10/21 03:27:57;;;;;;;;;;;10.50;99.90;;;;;;4956962;29;19927;-57
2022/10/21 03:30:25;;;;;;;;;;;10.50;99.90;;;;;;4956717;29;19926;-56
2022/10/21 03:32:52;;;;;;;;;;;10.50;99.90;;;;;;4956901;29;19934;-56
2022/10/21 03:35:19;;;;;;;;;;;10.50;99.90;;;;;;4956176;29;19933;-57
2022/10/21 03:37:47;;;;;;;;;;;10.50;99.90;;;;;;4956530;29;19927;-57
2022/10/21 03:40:14;;;;;;;;;;;10.50;99.90;;;;;;4956658;29;20421;-57
2022/10/21 03:42:42;;;;;;;;;;;10.40;99.90;;;;;;4956257;28;19933;-57
2022/10/21 03:45:09;;;;;;;;;;;10.40;99.90;;;;;;4956661;29;20293;-57
2022/10/21 03:47:37;;;;;;;;;;;10.40;99.90;;;;;;4956623;29;19933;-57
2022/10/21 03:50:06;;;;;;;;;;;10.40;99.90;;;;;;4954510;29;20403;-57
2022/10/21 03:52:39;;;;;;;;;;;10.50;99.90;;;;;;4956401;29;19985;-57
2022/10/21 03:55:07;;;;;;;;;;;10.50;99.90;;;;;;4956316;29;19927;-57
2022/10/21 03:57:34;;;;;;;;;;;10.50;99.90;;;;;;4956456;29;19926;-57
2022/10/21 04:00:02;;;;;;;;;;;10.50;99.90;;;;;;4956269;29;19926;-57
2022/10/21 04:02:38;;;;;;;;;;;10.60;99.90;;;;;;4956239;29;19934;-57
2022/10/21 04:05:07;;;;;;;;;;;10.60;99.90;;;;;;4956003;29;20333;-57
2022/10/21 04:07:34;;;;;;;;;;;10.70;99.90;;;;;;4955896;29;20302;-56
2022/10/21 04:10:02;;;;;;;;;;;10.70;99.90;;;;;;4956006;29;20382;-57
2022/10/21 04:12:29;;;;;;;;;;;10.70;99.90;;;;;;4956021;29;19934;-57
2022/10/21 04:14:57;;;;;;;;;;;10.70;99.90;;;;;;4955829;28;20396;-57
2022/10/21 04:17:24;;;;;;;;;;;10.70;99.90;;;;;;4955908;29;19930;-57
2022/10/21 04:19:51;;;;;;;;;;;10.70;99.90;;;;;;4955864;29;20481;-57
2022/10/21 04:22:19;;;;;;;;;;;10.70;99.90;;;;;;4955920;29;19927;-57
2022/10/21 04:24:46;;;;;;;;;;;10.80;99.90;;;;;;4955921;29;20405;-57
2022/10/21 04:27:13;;;;;;;;;;;10.80;99.90;;;;;;4955843;29;19942;-57
2022/10/21 04:29:41;;;;;;;;;;;10.80;99.90;;;;;;4955970;29;20285;-57
2022/10/21 04:32:09;;;;;;;;;;;10.80;99.90;;;;;;4955731;29;19926;-57
2022/10/21 04:34:36;;;;;;;;;;;10.70;99.90;;;;;;4955517;29;20301;-57
2022/10/21 04:37:03;;;;;;;;;;;10.70;99.90;;;;;;4954090;29;19927;-57
2022/10/21 04:39:31;;;;;;;;;;;10.70;99.90;;;;;;4955669;29;19927;-57
2022/10/21 04:41:59;;;;;;;;;;;10.70;99.90;;;;;;4955491;29;19933;-57
2022/10/21 04:44:26;;;;;;;;;;;10.70;99.90;;;;;;4955334;29;19934;-57
2022/10/21 04:46:54;;;;;;;;;;;10.60;99.90;;;;;;4954392;29;20301;-57
2022/10/21 04:49:21;;;;;;;;;;;10.60;99.90;;;;;;4945069;29;19999;-58
2022/10/21 04:51:49;;;;;;;;;;;10.60;99.90;;;;;;4932866;29;19933;-58
2022/10/21 04:54:16;;;;;;;;;;;10.60;99.90;;;;;;4932237;29;19927;-57
2022/10/21 04:56:44;;;;;;;;;;;10.60;99.90;;;;;;4932959;29;20524;-57
2022/10/21 04:59:11;;;;;;;;;;;10.60;99.90;;;;;;4949982;29;19927;-57
2022/10/21 05:01:38;;;;;;;;;;;10.60;99.90;;;;;;4949718;29;20003;-57
2022/10/21 05:04:06;;;;;;;;;;;10.60;99.90;;;;;;4928998;29;19927;-57
2022/10/21 05:06:33;;;;;;;;;;;10.60;99.90;;;;;;4943383;29;20382;-57
2022/10/21 05:09:01;;;;;;;;;;;10.60;99.90;;;;;;4950263;29;19949;-57
2022/10/21 05:11:29;;;;;;;;;;;10.70;99.90;;;;;;4950545;29;19938;-57
2022/10/21 05:13:56;;;;;;;;;;;10.60;99.90;;;;;;4948346;29;19930;-58
2022/10/21 05:16:24;;;;;;;;;;;10.60;99.90;;;;;;4949412;29;20095;-57
2022/10/21 05:18:51;;;;;;;;;;;10.60;99.90;;;;;;4938692;29;19938;-57
2022/10/21 05:21:19;;;;;;;;;;;10.60;99.90;;;;;;4932952;29;19934;-57
2022/10/21 05:23:47;;;;;;;;;;;10.50;99.90;;;;;;4944603;29;19927;-57
2022/10/21 05:26:14;;;;;;;;;;;10.50;99.90;;;;;;4951529;28;20289;-57
2022/10/21 05:28:41;;;;;;;;;;;10.50;99.90;;;;;;4950930;29;19942;-57
2022/10/21 05:31:09;;;;;;;;;;;10.50;99.90;;;;;;4950047;29;20298;-57
2022/10/21 05:33:36;;;;;;;;;;;10.50;99.90;;;;;;4947013;29;19930;-57
2022/10/21 05:36:07;;;;;;;;;;;10.50;99.90;;;;;;4948358;28;19933;-57
2022/10/21 05:38:34;;;;;;;;;;;10.50;99.90;;;;;;4950971;29;20317;-57
2022/10/21 05:41:04;;;;;;;;;;;10.50;99.90;;;;;;4949781;29;19926;-57
2022/10/21 05:43:32;;;;;;;;;;;10.40;99.90;;;;;;4946632;29;19927;-57
2022/10/21 05:45:59;;;;;;;;;;;10.40;99.90;;;;;;4947908;29;19927;-58
2022/10/21 05:48:27;;;;;;;;;;;10.40;99.90;;;;;;4938120;29;19926;-56
2022/10/21 05:50:54;;;;;;;;;;;10.40;99.90;;;;;;4929171;29;19930;-57
2022/10/21 05:53:22;;;;;;;;;;;10.40;99.90;;;;;;4940782;29;19935;-57
2022/10/21 05:56:00;;;;;;;;;;;10.40;99.90;;;;;;4949756;28;19933;-57
2022/10/21 05:58:29;;;;;;;;;;;10.40;99.90;;;;;;4951042;29;19972;-57
2022/10/21 06:00:56;;;;;;;;;;;10.40;99.90;;;;;;4950885;29;19933;-56
2022/10/21 06:03:28;;;;;;;;;;;10.40;99.90;;;;;;4953809;28;19927;-57
2022/10/21 06:05:56;;;;;;;;;;;10.40;99.90;;;;;;4940855;29;19926;-56
2022/10/21 06:08:24;;;;;;;;;;;10.40;99.90;;;;;;4950600;29;19927;-57
2022/10/21 06:11:02;;;;;;;;;;;10.40;99.90;;;;;;4950829;29;19927;-57
2022/10/21 06:13:30;;;;;;;;;;;10.40;99.90;;;;;;4949236;29;19926;-57
2022/10/21 06:15:57;;;;;;;;;;;10.40;99.90;;;;;;4950296;29;19930;-56
2022/10/21 06:18:25;;;;;;;;;;;10.40;99.90;;;;;;4944648;28;20389;-57
2022/10/21 06:20:53;;;;;;;;;;;10.30;99.90;;;;;;4930102;29;20282;-57
2022/10/21 06:23:20;;;;;;;;;;;10.30;99.90;;;;;;4939938;29;19926;-57
2022/10/21 06:25:55;;;;;;;;;;;10.30;99.90;;;;;;4949471;29;19926;-56
2022/10/21 06:28:23;;;;;;;;;;;10.30;99.90;;;;;;4950671;29;19926;-58
2022/10/21 06:30:50;;;;;;;;;;;10.30;99.90;;;;;;4949710;28;19956;-58
2022/10/21 06:33:18;;;;;;;;;;;10.30;99.90;;;;;;4942890;29;19931;-57
2022/10/21 06:35:53;;;;;;;;;;;10.30;99.90;;;;;;4937170;29;19933;-56
2022/10/21 06:38:21;;;;;;;;;;;10.30;99.90;;;;;;4949029;29;19927;-57
2022/10/21 06:40:48;;;;;;;;;;;10.30;99.90;;;;;;4949488;29;19931;-57
2022/10/21 06:43:16;;;;;;;;;;;10.30;99.90;;;;;;4948838;29;19934;-57
2022/10/21 06:45:43;;;;;;;;;;;10.30;99.90;;;;;;4949357;28;19938;-59
2022/10/21 06:48:12;;;;;;;;;;;10.30;99.90;;;;;;4944529;29;20312;-58
2022/10/21 06:50:54;;;;;;;;;;;10.40;99.90;;;;;;4928533;29;19927;-58
2022/10/21 06:53:22;;;;;;;;;;;10.40;99.90;;;;;;4940136;29;20386;-57
2022/10/21 06:55:49;;;;;;;;;;;10.50;99.90;;;;;;4947794;28;20302;-58
2022/10/21 06:58:16;;;;;;;;;;;10.50;99.90;;;;;;4948475;29;19946;-58
2022/10/21 07:00:44;;;;;;;;;;;10.60;99.90;;;;;;4946766;29;19935;-59
2022/10/21 07:03:12;;;;;;;;;;;10.60;99.90;;;;;;4944653;29;20318;-58
2022/10/21 07:05:39;;;;;;;;;;;10.70;99.90;;;;;;4932667;29;19927;-57
2022/10/21 07:08:07;;;;;;;;;;;10.70;99.90;;;;;;4938667;29;20321;-56
2022/10/21 07:10:41;;;;;;;;;;;10.70;99.90;;;;;;4941898;29;20306;-57
2022/10/21 07:13:08;;;;;;;;;;;10.80;99.90;;;;;;4941804;29;20761;-58
2022/10/21 07:15:36;;;;;;;;;;;10.90;99.90;;;;;;4946726;28;19926;-55
2022/10/21 07:18:03;;;;;;;;;;;10.90;99.90;;;;;;4951037;28;19927;-58
2022/10/21 07:20:32;;;;;;;;;;;11.00;99.90;;;;;;4948738;29;19927;-57
2022/10/21 07:22:59;;;;;;;;;;;11.10;99.90;;;;;;4949802;28;19933;-56
2022/10/21 07:25:27;;;;;;;;;;;11.20;99.90;;;;;;4950965;29;19937;-57
2022/10/21 07:27:54;;;;;;;;;;;11.20;99.90;;;;;;4942813;28;19935;-57
2022/10/21 07:30:22;;;;;;;;;;;11.30;99.90;;;;;;4933032;29;20409;-57
2022/10/21 07:32:49;;;;;;;;;;;11.30;99.90;;;;;;4941851;29;19934;-57
2022/10/21 07:35:17;;;;;;;;;;;11.40;99.90;;;;;;4936830;29;19957;-57
2022/10/21 07:37:44;;;;;;;;;;;11.40;99.90;;;;;;4950709;28;19927;-59
2022/10/21 07:40:12;;;;;;;;;;;11.50;99.90;;;;;;4951286;29;19957;-58
2022/10/21 07:42:39;;;;;;;;;;;11.50;99.90;;;;;;4950886;28;19934;-58
2022/10/21 07:45:07;;;;;;;;;;;11.60;99.90;;;;;;4932788;29;19927;-58
2022/10/21 07:47:34;;;;;;;;;;;11.60;99.90;;;;;;4934151;29;19931;-58
2022/10/21 07:50:02;;;;;;;;;;;11.60;99.90;;;;;;4948561;29;20374;-58
2022/10/21 07:52:30;;;;;;;;;;;11.60;99.90;;;;;;4953055;29;19931;-58
2022/10/21 07:55:03;;;;;;;;;;;11.60;99.90;;;;;;4950478;28;19926;-57
2022/10/21 07:57:30;;;;;;;;;;;11.70;99.90;;;;;;4952892;28;20015;-58
2022/10/21 07:59:58;;;;;;;;;;;11.70;99.90;;;;;;4953266;28;19930;-58
2022/10/21 08:02:25;;;;;;;;;;;11.70;99.90;;;;;;4952930;28;19946;-58
2022/10/21 08:04:53;;;;;;;;;;;11.70;99.90;;;;;;4943219;28;19926;-60
2022/10/21 08:07:21;;;;;;;;;;;11.80;99.90;;;;;;4951848;29;19926;-57
2022/10/21 08:09:48;;;;;;;;;;;11.80;99.90;;;;;;4952904;29;19933;-57
2022/10/21 08:12:16;;;;;;;;;;;11.80;99.90;;;;;;4949095;28;20324;-57
2022/10/21 08:14:43;;;;;;;;;;;11.80;99.90;;;;;;4949511;29;20570;-57
2022/10/21 08:17:11;;;;;;;;;;;11.90;99.90;;;;;;4949352;29;19926;-57
2022/10/21 08:19:38;;;;;;;;;;;11.90;99.90;;;;;;4951370;29;20412;-58
2022/10/21 08:22:05;;;;;;;;;;;12.00;99.90;;;;;;4952072;28;19930;-58
2022/10/21 08:24:33;;;;;;;;;;;12.10;99.90;;;;;;4952296;29;19926;-58
2022/10/21 08:27:07;;;;;;;;;;;12.10;99.90;;;;;;4950848;28;19933;-57
2022/10/21 08:29:35;;;;;;;;;;;12.10;99.90;;;;;;4950653;28;19926;-58
2022/10/21 08:32:06;;;;;;;;;;;12.20;99.90;;;;;;4948910;29;19926;-57
2022/10/21 08:34:33;;;;;;;;;;;12.20;99.90;;;;;;4939183;29;19945;-56
2022/10/21 08:37:01;;;;;;;;;;;12.20;99.90;;;;;;4948353;28;19950;-57
2022/10/21 08:39:28;;;;;;;;;;;12.30;99.90;;;;;;4951828;29;20293;-57
2022/10/21 08:42:06;;;;;;;;;;;12.30;99.90;;;;;;4952229;28;19946;-58
2022/10/21 08:44:49;;;;;;;;;;;12.40;99.90;;;;;;4951856;28;19931;-58
2022/10/21 08:47:19;;;;;;;;;;;12.40;99.90;;;;;;4952038;29;19959;-57
2022/10/21 08:49:59;;;;;;;;;;;12.50;99.90;;;;;;4943629;29;19934;-60
2022/10/21 08:52:33;;;;;;;;;;;12.50;99.90;;;;;;4936987;28;20322;-58
2022/10/21 08:55:03;;;;;;;;;;;12.60;99.90;;;;;;4946544;28;20094;-58
2022/10/21 08:57:35;;;;;;;;;;;12.80;99.90;;;;;;4950254;29;19927;-58
2022/10/21 09:00:20;;;;;;;;;;;12.90;99.90;;;;;;4947974;28;19926;-56
2022/10/21 09:02:54;;;;;;;;;;;13.00;99.90;;;;;;4952010;29;19946;-58
2022/10/21 09:05:25;;;;;;;;;;;13.20;99.90;;;;;;4949897;28;20289;-57
2022/10/21 09:08:02;;;;;;;;;;;13.30;99.90;;;;;;4951270;29;19937;-58
2022/10/21 09:10:45;;;;;;;;;;;13.30;99.90;;;;;;4951734;29;20000;-58
2022/10/21 09:13:17;;;;;;;;;;;13.40;99.90;;;;;;4949686;28;20824;-59
2022/10/21 09:16:00;;;;;;;;;;;13.50;99.90;;;;;;4948229;28;20289;-57
2022/10/21 09:18:48;;;;;;;;;;;13.60;99.90;;;;;;4934671;29;20381;-58
2022/10/21 09:21:26;;;;;;;;;;;13.70;99.90;;;;;;4932969;29;19927;-57
2022/10/21 09:24:01;;;;;;;;;;;13.80;99.90;;;;;;4943172;28;20305;-58
2022/10/21 09:26:31;;;;;;;;;;;13.90;99.90;;;;;;4951433;29;19927;-57
2022/10/21 09:29:01;;;;;;;;;;;13.90;99.90;;;;;;4949763;29;19934;-58
2022/10/21 09:31:29;;;;;;;;;;;14.00;99.90;;;;;;4950250;28;19926;-57
2022/10/21 09:33:59;;;;;;;;;;;14.10;99.90;;;;;;4949974;28;20413;-57
2022/10/21 09:36:35;;;;;;;;;;;14.10;99.90;;;;;;4960353;28;19930;-57
2022/10/21 09:39:09;;;;;;;;;;;14.10;99.90;;;;;;4931534;29;19930;-57
2022/10/21 09:41:41;;;;;;;;;;;14.10;99.90;;;;;;4932062;29;19930;-58
2022/10/21 09:44:29;;;;;;;;;;;14.20;99.90;;;;;;4945684;29;19926;-57
2022/10/21 09:46:56;;;;;;;;;;;14.20;99.90;;;;;;4950552;28;20297;-59
2022/10/21 09:49:28;;;;;;;;;;;14.30;99.90;;;;;;4932348;28;20056;-57
2022/10/21 09:52:17;;;;;;;;;;;14.40;99.90;;;;;;4947293;29;19926;-58
2022/10/21 09:54:46;;;;;;;;;;;14.40;99.90;;;;;;4943240;28;19934;-58
2022/10/21 09:57:13;;;;;;;;;;;14.40;99.90;;;;;;4947696;28;20403;-57
2022/10/21 09:59:51;;;;;;;;;;;14.50;99.90;;;;;;4951036;29;19934;-57
2022/10/21 10:02:23;;;;;;;;;;;14.40;99.90;;;;;;4949793;28;20305;-57
2022/10/21 10:04:50;;;;;;;;;;;14.50;99.90;;;;;;4944312;28;19926;-56
2022/10/21 10:07:38;;;;;;;;;;;14.50;99.90;;;;;;4948927;28;20277;-57
2022/10/21 10:10:25;;;;;;;;;;;14.50;99.90;;;;;;4950849;29;19927;-57
2022/10/21 10:12:57;;;;;;;;;;;14.60;99.90;;;;;;4949403;28;20290;-57
2022/10/21 10:15:42;;;;;;;;;;;14.70;99.90;;;;;;4950451;29;19926;-57
2022/10/21 10:18:21;;;;;;;;;;;14.70;99.90;;;;;;4950559;28;19926;-56
2022/10/21 10:21:05;;;;;;;;;;;14.80;99.90;;;;;;4946219;29;19950;-58
2022/10/21 10:23:41;;;;;;;;;;;14.80;99.90;;;;;;4950340;29;19933;-58
2022/10/21 10:26:09;;;;;;;;;;;14.90;99.90;;;;;;4949350;28;19933;-58
2022/10/21 10:28:36;;;;;;;;;;;14.90;99.90;;;;;;4949078;29;19927;-57
2022/10/21 10:31:04;;;;;;;;;;;15.00;99.90;;;;;;4947547;28;19948;-57
2022/10/21 10:33:33;;;;;;;;;;;15.00;99.90;;;;;;4933093;29;19926;-58
2022/10/21 10:36:03;;;;;;;;;;;15.00;99.90;;;;;;4948115;29;19931;-58
2022/10/21 10:38:35;;;;;;;;;;;15.00;99.90;;;;;;4948997;28;19937;-58
2022/10/21 10:41:04;;;;;;;;;;;15.00;99.90;;;;;;4938322;28;19927;-57
2022/10/21 10:43:32;;;;;;;;;;;14.90;99.90;;;;;;4939860;28;19934;-57
2022/10/21 10:46:06;;;;;;;;;;;14.90;99.90;;;;;;4950537;29;19927;-57
2022/10/21 10:48:36;;;;;;;;;;;14.90;99.90;;;;;;4949056;28;19931;-57
2022/10/21 10:51:22;;;;;;;;;;;14.90;99.90;;;;;;4948126;28;19930;-58
2022/10/21 10:54:13;;;;;;;;;;;14.90;99.90;;;;;;4953755;28;19980;-57
2022/10/21 10:56:43;;;;;;;;;;;14.90;99.90;;;;;;4945024;29;20285;-58
2022/10/21 10:59:15;;;;;;;;;;;14.90;99.90;;;;;;4952652;29;19941;-58
2022/10/21 11:01:52;;;;;;;;;;;14.90;99.90;;;;;;4954183;28;20011;-59
2022/10/21 11:04:27;;;;;;;;;;;15.00;99.90;;;;;;4951653;29;19926;-58
2022/10/21 11:06:57;;;;;;;;;;;15.10;99.90;;;;;;4950383;28;20421;-59
2022/10/21 11:09:25;;;;;;;;;;;15.20;99.90;;;;;;4953526;28;20390;-59
2022/10/21 11:11:55;;;;;;;;;;;15.30;99.90;;;;;;4951302;28;19953;-58
2022/10/21 11:14:22;;;;;;;;;;;15.30;99.90;;;;;;4951924;28;19935;-57
2022/10/21 11:17:10;;;;;;;;;;;15.40;99.90;;;;;;4951941;28;20296;-59
2022/10/21 11:19:41;;;;;;;;;;;15.50;99.90;;;;;;4935955;29;19930;-59
2022/10/21 11:22:19;;;;;;;;;;;15.60;99.90;;;;;;4935612;29;20417;-59
2022/10/21 11:24:50;;;;;;;;;;;15.80;99.90;;;;;;4952443;29;20259;-59
2022/10/21 11:27:27;;;;;;;;;;;15.90;99.90;;;;;;4950368;29;19934;-58
2022/10/21 11:30:00;;;;;;;;;;;16.00;99.90;;;;;;4933437;29;19934;-58
2022/10/21 11:32:35;;;;;;;;;;;16.10;99.90;;;;;;4940144;28;19953;-58
2022/10/21 11:35:28;;;;;;;;;;;16.30;99.90;;;;;;4951313;29;19942;-58
2022/10/21 11:37:56;;;;;;;;;;;16.40;99.90;;;;;;4938270;29;19927;-58
2022/10/21 11:40:23;;;;;;;;;;;16.70;99.90;;;;;;4953707;29;20298;-58
2022/10/21 11:42:51;;;;;;;;;;;17.10;99.90;;;;;;4952840;28;19957;-58
2022/10/21 11:45:19;;;;;;;;;;;17.20;99.90;;;;;;4953385;28;19933;-58
2022/10/21 11:47:47;;;;;;;;;;;17.30;99.90;;;;;;4953124;29;19933;-58
2022/10/21 11:50:33;;;;;;;;;;;17.20;99.90;;;;;;4950476;29;20287;-59
2022/10/21 11:53:20;;;;;;;;;;;17.10;99.90;;;;;;4941840;29;19942;-59
2022/10/21 11:56:07;;;;;;;;;;;17.00;99.90;;;;;;4953327;29;19926;-58
2022/10/21 11:58:41;;;;;;;;;;;17.00;99.90;;;;;;4951788;29;19954;-58
2022/10/21 12:01:22;;;;;;;;;;;17.10;99.90;;;;;;4951674;29;19934;-58
2022/10/21 12:03:59;;;;;;;;;;;17.30;99.90;;;;;;4949288;28;20419;-58
2022/10/21 12:06:45;;;;;;;;;;;17.40;99.90;;;;;;4948339;29;19939;-57
2022/10/21 12:09:25;;;;;;;;;;;17.30;99.90;;;;;;4950222;29;20298;-57
2022/10/21 12:12:01;;;;;;;;;;;17.20;99.90;;;;;;4951913;28;19926;-57
2022/10/21 12:14:32;;;;;;;;;;;17.00;99.90;;;;;;4950019;28;19937;-57
2022/10/21 12:17:03;;;;;;;;;;;16.80;99.90;;;;;;4952612;28;19927;-58
2022/10/21 12:19:30;;;;;;;;;;;16.70;99.90;;;;;;4950830;29;19927;-58
2022/10/21 12:21:58;;;;;;;;;;;16.70;99.90;;;;;;4940158;29;19930;-57
2022/10/21 12:24:29;;;;;;;;;;;16.60;99.90;;;;;;4939784;29;19942;-57
2022/10/21 12:27:14;;;;;;;;;;;16.50;99.90;;;;;;4949144;29;19949;-58
2022/10/21 12:29:46;;;;;;;;;;;16.50;99.90;;;;;;4933404;29;19927;-58
2022/10/21 12:32:32;;;;;;;;;;;16.40;99.90;;;;;;4940443;28;19933;-58
2022/10/21 12:35:00;;;;;;;;;;;16.30;99.90;;;;;;4940956;29;19927;-58
2022/10/21 12:37:48;;;;;;;;;;;16.30;99.90;;;;;;4938807;29;19926;-57
2022/10/21 12:40:32;;;;;;;;;;;16.20;99.90;;;;;;4929698;29;19927;-58
2022/10/21 12:43:01;;;;;;;;;;;16.20;99.90;;;;;;4951760;29;19934;-57
2022/10/21 12:45:30;;;;;;;;;;;16.20;99.90;;;;;;4951084;29;19926;-57
2022/10/21 12:47:58;;;;;;;;;;;16.20;99.90;;;;;;4945467;28;20318;-58
2022/10/21 12:50:28;;;;;;;;;;;16.30;99.90;;;;;;4931947;29;20297;-57
2022/10/21 12:53:14;;;;;;;;;;;16.40;99.90;;;;;;4935923;29;19938;-57
2022/10/21 12:55:46;;;;;;;;;;;16.60;99.90;;;;;;4951269;28;19935;-57
2022/10/21 12:58:35;;;;;;;;;;;16.80;99.90;;;;;;4950724;28;20271;-57
2022/10/21 13:01:04;;;;;;;;;;;16.90;99.90;;;;;;4951988;29;19931;-57
2022/10/21 13:03:44;;;;;;;;;;;16.90;99.90;;;;;;4946394;28;19930;-57
2022/10/21 13:06:11;;;;;;;;;;;16.90;99.90;;;;;;4946568;28;20462;-57
2022/10/21 13:08:51;;;;;;;;;;;16.80;99.90;;;;;;4946688;28;19942;-57
2022/10/21 13:11:23;;;;;;;;;;;16.70;99.90;;;;;;4944060;28;19934;-57
2022/10/21 13:14:09;;;;;;;;;;;16.60;99.90;;;;;;4935377;29;19927;-56
2022/10/21 13:16:40;;;;;;;;;;;16.50;99.90;;;;;;4943181;28;20413;-57
2022/10/21 13:19:14;;;;;;;;;;;16.50;99.90;;;;;;4945050;28;19926;-58
2022/10/21 13:21:46;;;;;;;;;;;16.50;99.90;;;;;;4944670;29;19934;-58
2022/10/21 13:24:22;;;;;;;;;;;16.40;99.90;;;;;;4944286;29;20272;-58
2022/10/21 13:26:52;;;;;;;;;;;16.40;99.90;;;;;;4949401;28;19926;-58
2022/10/21 13:29:23;;;;;;;;;;;16.50;99.90;;;;;;4942220;28;20418;-58
2022/10/21 13:32:28;;;;;;;;;;;16.50;99.90;;;;;;4936195;29;19980;-58
2022/10/21 13:34:58;;;;;;;;;;;16.60;99.90;;;;;;4964096;28;19934;-57
2022/10/21 13:37:25;;;;;;;;;;;16.70;99.90;;;;;;4963951;28;19934;-57
2022/10/21 13:39:55;;;;;;;;;;;16.80;99.90;;;;;;4956682;28;19927;-57
2022/10/21 13:42:22;;;;;;;;;;;16.80;99.90;;;;;;4949966;29;20160;-58
2022/10/21 13:44:53;;;;;;;;;;;16.80;99.90;;;;;;4947348;29;19931;-58
2022/10/21 13:47:29;;;;;;;;;;;16.90;99.90;;;;;;4947078;28;19934;-58
2022/10/21 13:50:01;;;;;;;;;;;16.90;99.90;;;;;;4937951;28;19934;-58
2022/10/21 13:52:29;;;;;;;;;;;16.90;99.90;;;;;;4943125;28;19930;-59
2022/10/21 13:54:57;;;;;;;;;;;16.90;99.90;;;;;;4943055;29;19930;-58
2022/10/21 13:57:32;;;;;;;;;;;16.90;99.90;;;;;;4947515;29;19926;-58
2022/10/21 14:00:08;;;;;;;;;;;16.90;99.90;;;;;;4949629;28;20408;-58
2022/10/21 14:02:35;;;;;;;;;;;16.90;99.90;;;;;;4940885;28;19950;-57
2022/10/21 14:05:03;;;;;;;;;;;16.80;99.90;;;;;;4948119;29;20333;-58
2022/10/21 14:07:31;;;;;;;;;;;16.70;99.90;;;;;;4941357;28;19933;-57
2022/10/21 14:09:58;;;;;;;;;;;16.70;99.90;;;;;;4943366;29;20266;-57
2022/10/21 14:12:33;;;;;;;;;;;16.60;99.90;;;;;;4944681;29;19927;-57
2022/10/21 14:15:03;;;;;;;;;;;16.60;99.90;;;;;;4946747;28;19946;-57
2022/10/21 14:17:31;;;;;;;;;;;16.50;99.90;;;;;;4945508;28;19946;-58
2022/10/21 14:20:06;;;;;;;;;;;16.50;99.90;;;;;;4940762;28;20684;-58
2022/10/21 14:22:34;;;;;;;;;;;16.40;99.90;;;;;;4940389;28;19933;-59
2022/10/21 14:25:01;;;;;;;;;;;16.80;99.90;;;;;;4944096;28;19934;-58
2022/10/21 14:27:31;;;;;;;;;;;16.30;99.90;;;;;;4948106;28;20377;-58
2022/10/21 14:30:01;;;;;;;;;;;16.20;99.90;;;;;;4949722;29;19938;-58
2022/10/21 14:32:29;;;;;;;;;;;16.10;99.90;;;;;;4947656;29;19926;-59
2022/10/21 14:35:03;;;;;;;;;;;16.10;99.90;;;;;;4936274;29;19952;-57
2022/10/21 14:37:46;;;;;;;;;;;16.00;99.90;;;;;;4949738;29;19930;-58
2022/10/21 14:40:30;;;;;;;;;;;16.00;99.90;;;;;;4931379;29;19945;-58
2022/10/21 14:43:02;;;;;;;;;;;16.00;99.90;;;;;;4938028;29;19941;-58